Time;durP1;ratioP1;P1;durP2;ratioP2;P2;SDS_P1;SDS_P2;PMS_P1;PMS_P2;Temp;Humidity;BMP_temperature;BMP_pressure;BME280_temperature;BME280_humidity;BME280_pressure;Samples;Min_cycle;Max_cycle;Signal;HPM_P1;HPM_P2
2023/01/20 00:00:37;;;;;;;9.37;6.43;;;-1.30;99.90;;;;;;4094711;29;20514;-64
2023/01/20 00:02:38;;;;;;;11.67;6.10;;;-1.30;99.90;;;;;;4096796;29;20435;-63
2023/01/20 00:04:39;;;;;;;10.40;6.13;;;-1.30;99.90;;;;;;4096755;29;20960;-63
2023/01/20 00:06:39;;;;;;;9.20;5.57;;;-1.40;99.90;;;;;;4096819;29;20184;-64
2023/01/20 00:08:40;;;;;;;9.87;6.10;;;-1.40;99.90;;;;;;4096779;29;20183;-63
2023/01/20 00:10:41;;;;;;;9.70;5.70;;;-1.30;99.90;;;;;;4095990;29;20697;-64
2023/01/20 00:12:41;;;;;;;8.80;5.60;;;-1.30;99.90;;;;;;4096619;29;20602;-66
2023/01/20 00:14:42;;;;;;;10.67;5.53;;;-1.30;99.90;;;;;;4096465;29;20207;-63
2023/01/20 00:16:43;;;;;;;10.47;5.67;;;-1.40;99.90;;;;;;4096556;29;20397;-64
2023/01/20 00:18:44;;;;;;;8.40;5.27;;;-1.40;99.90;;;;;;4079546;29;20197;-63
2023/01/20 00:20:44;;;;;;;10.50;6.20;;;-1.60;99.90;;;;;;4095874;29;20188;-63
2023/01/20 00:22:45;;;;;;;9.90;5.80;;;-1.70;99.90;;;;;;4096423;29;20184;-64
2023/01/20 00:24:46;;;;;;;10.97;6.10;;;-1.60;99.90;;;;;;4096196;29;20214;-64
2023/01/20 00:26:46;;;;;;;9.70;6.30;;;-1.50;99.90;;;;;;4096306;29;20185;-63
2023/01/20 00:28:49;;;;;;;10.03;5.70;;;-1.60;99.90;;;;;;4096252;29;20180;-65
2023/01/20 00:30:49;;;;;;;9.00;5.53;;;-1.50;99.90;;;;;;4095816;29;20188;-63
2023/01/20 00:32:51;;;;;;;9.17;5.03;;;-1.40;99.90;;;;;;4096445;29;20428;-64
2023/01/20 00:34:51;;;;;;;8.13;5.47;;;-1.30;99.90;;;;;;4080770;28;20184;-64
2023/01/20 00:36:52;;;;;;;10.80;5.63;;;-1.30;99.90;;;;;;4104419;28;20479;-64
2023/01/20 00:38:53;;;;;;;7.03;5.03;;;-1.30;99.90;;;;;;4078921;28;20183;-63
2023/01/20 00:40:54;;;;;;;8.77;5.13;;;-1.20;99.90;;;;;;4078738;28;20196;-64
2023/01/20 00:42:55;;;;;;;8.13;4.53;;;-1.20;99.90;;;;;;4095976;29;20270;-63
2023/01/20 00:44:56;;;;;;;7.77;4.63;;;-1.30;99.90;;;;;;4095766;29;21049;-63
2023/01/20 00:46:56;;;;;;;9.90;5.20;;;-1.30;99.90;;;;;;4078804;29;20196;-63
2023/01/20 00:48:57;;;;;;;5.97;4.30;;;-1.30;99.90;;;;;;4095756;28;20218;-66
2023/01/20 00:50:58;;;;;;;9.30;5.07;;;-1.20;99.90;;;;;;4095523;28;20176;-63
2023/01/20 00:52:59;;;;;;;8.03;4.80;;;-1.20;99.90;;;;;;4095624;29;20560;-62
2023/01/20 00:54:59;;;;;;;5.97;4.33;;;-1.20;99.90;;;;;;4095981;29;20423;-63
2023/01/20 00:57:00;;;;;;;6.73;4.23;;;-1.30;99.90;;;;;;4096114;28;20249;-64
2023/01/20 00:59:01;;;;;;;6.37;4.03;;;-1.30;99.90;;;;;;4095289;29;20188;-62
2023/01/20 01:01:01;;;;;;;6.27;4.53;;;-1.30;99.90;;;;;;4094834;29;20530;-62
2023/01/20 01:03:04;;;;;;;7.53;5.00;;;-1.50;99.90;;;;;;4084189;28;20216;-63
2023/01/20 01:05:05;;;;;;;7.03;4.73;;;-1.40;99.90;;;;;;4101709;28;20203;-63
2023/01/20 01:07:06;;;;;;;9.17;5.10;;;-1.40;99.90;;;;;;4095198;29;20447;-63
2023/01/20 01:09:06;;;;;;;9.60;5.07;;;-1.40;99.90;;;;;;4095221;29;20484;-63
2023/01/20 01:11:08;;;;;;;8.40;4.73;;;-1.50;99.90;;;;;;4101846;29;20191;-62
2023/01/20 01:13:09;;;;;;;8.03;5.00;;;-1.50;99.90;;;;;;4100978;29;20229;-64
2023/01/20 01:15:10;;;;;;;7.27;4.57;;;-1.50;99.90;;;;;;4095749;29;20863;-63
2023/01/20 01:17:11;;;;;;;8.50;5.03;;;-1.40;99.90;;;;;;4095758;29;20584;-62
2023/01/20 01:19:12;;;;;;;7.97;5.00;;;-1.30;99.90;;;;;;4094935;29;20427;-63
2023/01/20 01:21:15;;;;;;;8.60;5.13;;;-1.30;99.90;;;;;;4095236;29;20188;-63
2023/01/20 01:23:16;;;;;;;7.73;4.27;;;-1.30;99.90;;;;;;4095247;29;20186;-63
2023/01/20 01:25:17;;;;;;;7.73;4.37;;;-1.30;99.90;;;;;;4078131;29;20554;-63
2023/01/20 01:27:17;;;;;;;5.00;3.70;;;-1.30;99.90;;;;;;4095146;29;20209;-62
2023/01/20 01:29:18;;;;;;;8.73;4.50;;;-1.30;99.90;;;;;;4094387;29;20180;-63
2023/01/20 01:31:20;;;;;;;6.57;4.97;;;-1.30;99.90;;;;;;4095072;29;20183;-63
2023/01/20 01:33:21;;;;;;;6.73;4.60;;;-1.30;99.90;;;;;;4095042;29;20227;-63
2023/01/20 01:35:22;;;;;;;7.13;4.27;;;-1.30;99.90;;;;;;4095489;29;21091;-63
2023/01/20 01:37:22;;;;;;;6.57;4.10;;;-1.30;99.90;;;;;;4095153;29;20215;-63
2023/01/20 01:39:23;;;;;;;7.33;3.70;;;-1.30;99.90;;;;;;4094526;29;20183;-63
2023/01/20 01:41:24;;;;;;;7.77;4.47;;;-1.40;99.90;;;;;;4095717;28;20195;-62
2023/01/20 01:43:36;;;;;;;3.87;3.33;;;-1.50;99.90;;;;;;4097677;29;20175;-63
2023/01/20 01:45:38;;;;;;;5.40;3.73;;;-1.60;99.90;;;;;;4097838;29;20188;-63
2023/01/20 01:48:08;;;;;;;6.47;3.80;;;-1.60;99.90;;;;;;4097642;28;20511;-63
2023/01/20 01:50:14;;;;;;;6.20;3.97;;;-1.60;99.90;;;;;;4078744;29;20448;-63
2023/01/20 01:52:17;;;;;;;6.77;3.90;;;-1.70;99.90;;;;;;4080435;29;20423;-63
2023/01/20 01:54:22;;;;;;;4.80;3.50;;;-1.70;99.90;;;;;;4080673;29;20515;-63
2023/01/20 01:56:25;;;;;;;6.47;3.50;;;-1.70;99.90;;;;;;4097488;29;20931;-63
2023/01/20 01:58:31;;;;;;;4.70;3.20;;;-1.80;99.90;;;;;;4080716;29;20451;-63
2023/01/20 02:00:32;;;;;;;5.97;3.50;;;-1.80;99.90;;;;;;4096827;29;20423;-64
2023/01/20 02:02:32;;;;;;;6.03;3.67;;;-1.70;99.90;;;;;;4097529;29;20466;-62
2023/01/20 02:04:33;;;;;;;5.93;3.87;;;-1.80;99.90;;;;;;4097450;29;20959;-63
2023/01/20 02:06:39;;;;;;;5.60;3.50;;;-1.90;99.90;;;;;;4097355;29;20183;-63
2023/01/20 02:08:41;;;;;;;4.43;3.23;;;-1.80;99.90;;;;;;4080839;28;20502;-63
2023/01/20 02:10:41;;;;;;;6.00;3.60;;;-1.80;99.90;;;;;;4096992;29;20434;-63
2023/01/20 02:12:48;;;;;;;4.87;3.40;;;-2.00;99.90;;;;;;4097464;29;21265;-63
2023/01/20 02:14:54;;;;;;;5.10;3.40;;;-2.10;99.90;;;;;;4097385;28;20282;-62
2023/01/20 02:17:20;;;;;;;3.73;2.67;;;-2.10;99.90;;;;;;4080343;29;20968;-63
2023/01/20 02:20:14;;;;;;;5.57;3.17;;;-2.00;99.90;;;;;;4096652;29;20532;-63
2023/01/20 02:22:44;;;;;;;3.87;2.80;;;-2.00;99.90;;;;;;4080047;29;20456;-61
2023/01/20 02:25:06;;;;;;;3.47;2.50;;;-1.90;99.90;;;;;;4096027;29;20502;-63
2023/01/20 02:27:22;;;;;;;5.67;3.23;;;-2.00;99.90;;;;;;4097198;29;20504;-63
2023/01/20 02:30:04;;;;;;;4.80;3.47;;;-2.00;99.90;;;;;;4096827;29;20415;-62
2023/01/20 02:32:35;;;;;;;4.57;2.53;;;-1.80;99.90;;;;;;4101203;28;20424;-63
2023/01/20 02:34:54;;;;;;;6.70;3.67;;;-1.70;99.90;;;;;;4081307;28;20470;-63
2023/01/20 02:37:22;;;;;;;6.13;3.73;;;-1.90;99.90;;;;;;4079942;29;20467;-63
2023/01/20 02:39:36;;;;;;;5.57;3.60;;;-1.90;99.90;;;;;;4063891;29;20421;-63
2023/01/20 02:42:09;;;;;;;8.67;4.80;;;-1.80;99.90;;;;;;4064283;29;20496;-63
2023/01/20 02:44:36;;;;;;;6.83;4.03;;;-1.90;99.90;;;;;;4081118;29;20507;-63
2023/01/20 02:47:25;;;;;;;10.07;5.03;;;-1.80;99.90;;;;;;4080054;29;20415;-63
2023/01/20 02:49:37;;;;;;;8.80;5.20;;;-1.70;99.90;;;;;;4088509;28;20451;-63
2023/01/20 02:51:57;;;;;;;9.57;5.83;;;-1.80;99.90;;;;;;4079925;29;20499;-63
2023/01/20 02:54:09;;;;;;;9.10;5.67;;;-1.80;99.90;;;;;;4078711;29;20447;-62
2023/01/20 02:56:12;;;;;;;9.47;6.20;;;-1.70;99.90;;;;;;4080881;29;20420;-63
2023/01/20 02:58:26;;;;;;;13.17;7.57;;;-1.60;99.90;;;;;;4079578;29;20469;-63
2023/01/20 03:00:40;;;;;;;11.83;6.30;;;-1.70;99.90;;;;;;4063453;29;20431;-63
2023/01/20 03:02:44;;;;;;;11.07;6.30;;;-1.90;99.90;;;;;;4080956;29;20551;-63
2023/01/20 03:04:54;;;;;;;6.57;4.60;;;-2.10;99.90;;;;;;4080933;29;20508;-63
2023/01/20 03:06:57;;;;;;;7.60;4.83;;;-2.10;99.90;;;;;;4080966;29;20467;-63
2023/01/20 03:09:04;;;;;;;10.07;5.97;;;-1.90;99.90;;;;;;4074676;28;20443;-62
2023/01/20 03:11:08;;;;;;;12.03;6.83;;;-1.90;99.90;;;;;;4067797;29;20414;-62
2023/01/20 03:13:26;;;;;;;8.90;6.00;;;-1.80;99.90;;;;;;4088004;29;20814;-63
2023/01/20 03:15:40;;;;;;;10.50;6.23;;;-1.90;99.90;;;;;;4081525;29;20408;-63
2023/01/20 03:17:41;;;;;;;11.97;6.73;;;-1.80;99.90;;;;;;4064625;29;20981;-62
2023/01/20 03:19:42;;;;;;;14.27;7.37;;;-1.70;99.90;;;;;;4080336;29;20437;-63
2023/01/20 03:21:43;;;;;;;11.77;7.67;;;-1.70;99.90;;;;;;4080980;29;20563;-63
2023/01/20 03:23:53;;;;;;;14.83;7.73;;;-1.60;99.90;;;;;;4063796;29;20221;-63
2023/01/20 03:25:55;;;;;;;13.63;7.33;;;-1.60;99.90;;;;;;4063730;29;20451;-63
2023/01/20 03:27:56;;;;;;;14.37;7.70;;;-1.60;99.90;;;;;;4080660;29;20450;-63
2023/01/20 03:29:56;;;;;;;12.13;7.00;;;-1.70;99.90;;;;;;4078853;29;21111;-63
2023/01/20 03:32:00;;;;;;;11.17;6.60;;;-1.80;99.90;;;;;;4080624;29;20555;-63
2023/01/20 03:34:09;;;;;;;12.80;7.57;;;-1.90;99.90;;;;;;4063662;29;20686;-63
2023/01/20 03:36:11;;;;;;;10.43;6.50;;;-2.10;99.90;;;;;;4064071;28;20992;-63
2023/01/20 03:38:12;;;;;;;10.70;6.17;;;-2.40;99.90;;;;;;4063633;29;20457;-63
2023/01/20 03:40:13;;;;;;;11.00;6.73;;;-2.50;99.90;;;;;;4062976;29;20439;-62
2023/01/20 03:42:43;;;;;;;10.77;6.53;;;-2.70;99.90;;;;;;4080575;29;20570;-63
2023/01/20 03:44:56;;;;;;;13.97;7.37;;;-2.70;99.90;;;;;;4063492;29;20522;-63
2023/01/20 03:47:43;;;;;;;10.47;6.60;;;-2.70;99.90;;;;;;4080479;29;20456;-62
2023/01/20 03:50:08;;;;;;;12.10;6.90;;;-2.90;99.90;;;;;;4079815;29;20492;-63
2023/01/20 03:52:33;;;;;;;14.67;7.80;;;-3.10;99.90;;;;;;4063447;29;20894;-62
2023/01/20 03:55:02;;;;;;;12.40;7.20;;;-3.20;99.90;;;;;;4080148;29;20423;-63
2023/01/20 03:57:16;;;;;;;13.00;6.83;;;-3.20;99.90;;;;;;4061579;28;20457;-61
2023/01/20 03:59:19;;;;;;;13.47;8.23;;;-3.30;99.90;;;;;;4084589;29;20447;-63
2023/01/20 04:01:25;;;;;;;11.77;7.03;;;-3.40;99.90;;;;;;4092102;29;20456;-63
2023/01/20 04:03:30;;;;;;;12.60;7.50;;;-3.40;99.90;;;;;;4078766;29;20421;-62
2023/01/20 04:05:32;;;;;;;13.20;7.77;;;-3.50;99.90;;;;;;4078459;29;20443;-62
2023/01/20 04:07:33;;;;;;;12.93;7.13;;;-3.50;99.90;;;;;;4078642;29;20507;-62
2023/01/20 04:09:38;;;;;;;14.03;7.87;;;-3.60;99.90;;;;;;4078179;29;20428;-62
2023/01/20 04:11:39;;;;;;;14.60;7.60;;;-3.70;99.90;;;;;;4078791;29;20169;-62
2023/01/20 04:13:39;;;;;;;12.50;7.37;;;-3.70;99.90;;;;;;4077272;29;20456;-62
2023/01/20 04:15:43;;;;;;;12.80;7.40;;;-3.80;99.90;;;;;;4160884;28;20190;-62
2023/01/20 04:17:44;;;;;;;14.20;7.80;;;-3.90;99.90;;;;;;4161514;28;20212;-62
2023/01/20 04:19:44;;;;;;;15.53;8.43;;;-3.90;99.90;;;;;;4095079;29;20450;-62
2023/01/20 04:21:52;;;;;;;14.37;7.83;;;-4.00;99.90;;;;;;4095625;29;20180;-62
2023/01/20 04:24:09;;;;;;;14.67;7.67;;;-4.00;99.90;;;;;;4078659;28;20207;-62
2023/01/20 04:26:10;;;;;;;15.80;8.20;;;-4.00;99.90;;;;;;4078946;29;20473;-62
2023/01/20 04:28:11;;;;;;;15.57;8.03;;;-4.10;99.90;;;;;;4095476;29;20443;-62
2023/01/20 04:30:13;;;;;;;14.20;8.13;;;-4.10;99.90;;;;;;4095020;29;20219;-62
2023/01/20 04:32:13;;;;;;;20.27;8.53;;;-4.10;99.90;;;;;;4095471;29;20189;-62
2023/01/20 04:34:15;;;;;;;14.40;8.13;;;-4.00;99.90;;;;;;4095419;29;20450;-62
2023/01/20 04:36:16;;;;;;;15.50;7.57;;;-4.10;99.90;;;;;;4094099;29;20200;-62
2023/01/20 04:38:16;;;;;;;14.13;7.90;;;-4.10;99.90;;;;;;4095407;29;20462;-62
2023/01/20 04:40:17;;;;;;;16.63;7.47;;;-4.10;99.90;;;;;;4147207;28;20188;-62
2023/01/20 04:42:18;;;;;;;17.17;8.63;;;-4.20;99.90;;;;;;4162275;28;20183;-62
2023/01/20 04:44:19;;;;;;;12.00;7.07;;;-4.20;99.90;;;;;;4162065;28;20233;-62
2023/01/20 04:46:20;;;;;;;14.03;7.37;;;-4.20;99.90;;;;;;4162438;28;20424;-62
2023/01/20 04:48:20;;;;;;;12.03;6.97;;;-4.30;99.90;;;;;;4162117;28;20206;-62
2023/01/20 04:50:21;;;;;;;11.50;6.90;;;-4.30;99.90;;;;;;4161666;28;20177;-62
2023/01/20 04:52:22;;;;;;;13.90;8.07;;;-4.30;99.90;;;;;;4162347;28;20646;-62
2023/01/20 04:54:22;;;;;;;14.27;7.17;;;-4.40;99.90;;;;;;4162412;28;20199;-61
2023/01/20 04:56:23;;;;;;;12.90;7.33;;;-4.40;99.90;;;;;;4162362;28;20605;-61
2023/01/20 04:58:24;;;;;;;11.80;7.90;;;-4.50;99.90;;;;;;4162190;28;20590;-62
2023/01/20 05:00:25;;;;;;;15.77;7.90;;;-4.50;99.90;;;;;;4161242;28;20215;-62
2023/01/20 05:02:26;;;;;;;15.83;8.20;;;-4.40;99.90;;;;;;4178686;28;20278;-62
2023/01/20 05:04:26;;;;;;;18.23;9.37;;;-4.30;99.90;;;;;;4178601;28;20704;-62
2023/01/20 05:06:27;;;;;;;12.43;7.03;;;-4.40;99.90;;;;;;4178497;28;20180;-62
2023/01/20 05:08:28;;;;;;;14.00;8.03;;;-4.50;99.90;;;;;;4178513;28;20205;-60
2023/01/20 05:10:28;;;;;;;13.77;7.07;;;-4.40;99.90;;;;;;4112357;28;20656;-62
2023/01/20 05:12:29;;;;;;;14.03;8.07;;;-4.50;99.90;;;;;;4087368;29;20188;-63
2023/01/20 05:14:29;;;;;;;11.33;7.13;;;-4.60;99.90;;;;;;4068547;29;20200;-65
2023/01/20 05:16:32;;;;;;;14.87;8.43;;;-4.60;99.90;;;;;;4081539;28;20220;-61
2023/01/20 05:18:34;;;;;;;16.87;8.83;;;-4.70;99.90;;;;;;4083016;29;20216;-64
2023/01/20 05:20:34;;;;;;;18.07;7.57;;;-4.90;99.90;;;;;;4082543;29;20432;-61
2023/01/20 05:22:35;;;;;;;15.43;8.20;;;-4.90;99.90;;;;;;4082839;29;20480;-63
2023/01/20 05:24:36;;;;;;;13.20;7.43;;;-4.90;99.90;;;;;;4083000;29;20223;-63
2023/01/20 05:26:37;;;;;;;15.13;7.97;;;-4.90;99.90;;;;;;4082663;29;20650;-63
2023/01/20 05:28:38;;;;;;;14.43;7.97;;;-4.90;99.90;;;;;;4066006;28;20531;-63
2023/01/20 05:30:38;;;;;;;17.33;9.00;;;-4.80;99.90;;;;;;4082351;29;20192;-62
2023/01/20 05:32:39;;;;;;;12.87;7.33;;;-4.90;99.90;;;;;;4082648;29;20216;-62
2023/01/20 05:34:40;;;;;;;14.63;7.90;;;-4.90;99.90;;;;;;4082521;29;20211;-63
2023/01/20 05:36:40;;;;;;;13.83;6.07;;;-4.80;99.90;;;;;;4082325;29;20200;-63
2023/01/20 05:38:41;;;;;;;12.77;6.43;;;-4.70;99.90;;;;;;4082341;29;20185;-62
2023/01/20 05:40:41;;;;;;;12.60;6.63;;;-4.70;99.90;;;;;;4081769;29;20705;-63
2023/01/20 05:42:42;;;;;;;10.60;5.73;;;-4.70;99.90;;;;;;4082291;29;20275;-63
2023/01/20 05:44:43;;;;;;;12.43;7.03;;;-4.70;99.90;;;;;;4082187;29;20215;-63
2023/01/20 05:46:44;;;;;;;12.53;7.13;;;-4.80;99.90;;;;;;4082384;29;20223;-63
2023/01/20 05:48:44;;;;;;;21.27;9.13;;;-4.80;99.90;;;;;;4082183;29;20191;-62
2023/01/20 05:50:45;;;;;;;17.97;8.93;;;-4.90;99.90;;;;;;4081496;29;20191;-62
2023/01/20 05:52:45;;;;;;;14.90;7.67;;;-4.90;99.90;;;;;;4082297;29;20184;-62
2023/01/20 05:54:46;;;;;;;18.57;8.57;;;-4.80;99.90;;;;;;4082219;29;20189;-62
2023/01/20 05:56:48;;;;;;;13.87;7.33;;;-4.80;99.90;;;;;;4082254;29;20671;-63
2023/01/20 05:58:53;;;;;;;12.43;7.40;;;-4.90;99.90;;;;;;4064941;29;20650;-63
2023/01/20 06:00:53;;;;;;;15.73;8.07;;;-4.90;99.90;;;;;;4064152;29;20445;-62
2023/01/20 06:02:54;;;;;;;13.00;7.43;;;-4.90;99.90;;;;;;4081583;29;20478;-62
2023/01/20 06:04:55;;;;;;;10.50;6.30;;;-4.90;99.90;;;;;;4081502;29;20215;-63
2023/01/20 06:06:56;;;;;;;12.10;7.13;;;-4.90;99.90;;;;;;4082109;29;20331;-63
2023/01/20 06:08:57;;;;;;;10.00;6.57;;;-4.90;99.90;;;;;;4086750;29;20443;-63
2023/01/20 06:10:58;;;;;;;11.73;6.80;;;-5.00;99.90;;;;;;4096628;29;20838;-62
2023/01/20 06:12:58;;;;;;;15.70;7.07;;;-4.90;99.90;;;;;;4097658;29;20196;-63
2023/01/20 06:14:59;;;;;;;64.33;35.23;;;-4.90;99.90;;;;;;4097297;29;20191;-63
2023/01/20 06:17:00;;;;;;;35.47;19.77;;;-5.10;99.90;;;;;;4080164;29;20231;-62
2023/01/20 06:19:00;;;;;;;32.20;16.50;;;-5.00;99.90;;;;;;4097345;29;20199;-62
2023/01/20 06:21:01;;;;;;;17.17;10.00;;;-5.10;99.90;;;;;;4096509;29;20303;-63
2023/01/20 06:23:02;;;;;;;12.47;7.40;;;-5.10;99.90;;;;;;4097363;29;20672;-62
2023/01/20 06:25:03;;;;;;;14.67;8.27;;;-5.20;99.90;;;;;;4097279;29;20211;-63
2023/01/20 06:27:04;;;;;;;15.00;9.27;;;-5.10;99.90;;;;;;4097172;29;20208;-63
2023/01/20 06:29:04;;;;;;;15.33;9.00;;;-5.10;99.90;;;;;;4097314;29;20812;-62
2023/01/20 06:31:12;;;;;;;13.43;8.60;;;-5.10;99.90;;;;;;4096870;29;20565;-63
2023/01/20 06:33:12;;;;;;;14.23;8.63;;;-5.10;99.90;;;;;;4094907;28;20281;-62
2023/01/20 06:35:13;;;;;;;18.87;8.77;;;-5.10;99.90;;;;;;4164156;28;20928;-63
2023/01/20 06:37:14;;;;;;;16.20;9.17;;;-5.20;99.90;;;;;;4146827;28;20633;-62
2023/01/20 06:39:15;;;;;;;15.20;8.40;;;-5.10;99.90;;;;;;4146216;28;20545;-61
2023/01/20 06:41:18;;;;;;;13.67;7.93;;;-5.00;99.90;;;;;;4162703;28;20191;-62
2023/01/20 06:43:18;;;;;;;8.73;6.23;;;-4.90;99.90;;;;;;4146431;28;20281;-62
2023/01/20 06:45:19;;;;;;;17.40;9.47;;;-4.70;99.90;;;;;;4164021;28;20964;-63
2023/01/20 06:47:19;;;;;;;13.27;8.67;;;-4.60;99.90;;;;;;4164162;28;20591;-63
2023/01/20 06:49:20;;;;;;;14.93;7.87;;;-4.60;99.90;;;;;;4145778;28;20722;-62
2023/01/20 06:51:21;;;;;;;13.07;8.70;;;-4.60;99.90;;;;;;4163884;28;20223;-62
2023/01/20 06:53:21;;;;;;;13.97;7.73;;;-4.60;99.90;;;;;;4163927;28;20217;-63
2023/01/20 06:55:22;;;;;;;13.33;7.83;;;-4.60;99.90;;;;;;4163941;28;20219;-63
2023/01/20 06:57:23;;;;;;;12.20;7.33;;;-4.50;99.90;;;;;;4163776;28;20274;-62
2023/01/20 06:59:23;;;;;;;13.47;7.50;;;-4.60;99.90;;;;;;4163289;28;20189;-62
2023/01/20 07:01:27;;;;;;;13.57;7.60;;;-4.60;99.90;;;;;;4163839;28;20185;-62
2023/01/20 07:03:28;;;;;;;11.30;7.73;;;-4.60;99.90;;;;;;4163788;28;20275;-63
2023/01/20 07:05:29;;;;;;;12.43;7.07;;;-4.60;99.90;;;;;;4158350;28;20483;-60
2023/01/20 07:07:29;;;;;;;12.17;6.57;;;-4.60;99.90;;;;;;4079700;29;20208;-61
2023/01/20 07:09:30;;;;;;;14.53;8.27;;;-4.60;99.90;;;;;;4096249;29;20188;-63
2023/01/20 07:11:31;;;;;;;11.67;5.93;;;-4.60;99.90;;;;;;4099978;29;20278;-63
2023/01/20 07:13:32;;;;;;;11.83;6.70;;;-4.70;99.90;;;;;;4103883;29;20211;-64
2023/01/20 07:15:32;;;;;;;12.57;6.50;;;-4.60;99.90;;;;;;4097138;29;20202;-64
2023/01/20 07:17:33;;;;;;;10.17;5.90;;;-4.60;99.90;;;;;;4096921;29;20242;-64
2023/01/20 07:19:34;;;;;;;9.33;5.63;;;-4.50;99.90;;;;;;4095966;29;20632;-62
2023/01/20 07:21:35;;;;;;;7.90;5.33;;;-4.30;99.90;;;;;;4096890;29;20187;-63
2023/01/20 07:23:35;;;;;;;12.00;6.13;;;-4.20;99.90;;;;;;4096573;29;20195;-60
2023/01/20 07:25:37;;;;;;;10.57;5.60;;;-4.10;99.90;;;;;;4079599;29;20192;-62
2023/01/20 07:27:37;;;;;;;9.47;5.70;;;-4.00;99.90;;;;;;4096635;29;20201;-62
2023/01/20 07:29:39;;;;;;;10.00;5.70;;;-4.00;99.90;;;;;;4095883;29;20444;-63
2023/01/20 07:31:40;;;;;;;11.67;5.20;;;-3.90;99.90;;;;;;4096486;29;20199;-61
2023/01/20 07:33:41;;;;;;;7.73;5.07;;;-3.80;99.90;;;;;;4096667;29;20885;-64
2023/01/20 07:35:41;;;;;;;9.23;6.23;;;-3.70;99.90;;;;;;4096297;29;20219;-63
2023/01/20 07:37:42;;;;;;;10.43;5.97;;;-3.70;99.90;;;;;;4096437;29;20218;-63
2023/01/20 07:39:43;;;;;;;8.27;6.00;;;-3.70;99.90;;;;;;4095261;28;20187;-64
2023/01/20 07:41:47;;;;;;;8.43;5.40;;;-3.60;99.90;;;;;;4096607;29;20184;-64
2023/01/20 07:43:50;;;;;;;10.33;5.87;;;-3.50;99.90;;;;;;4096392;29;20218;-64
2023/01/20 07:46:10;;;;;;;15.40;7.20;;;-3.40;99.90;;;;;;4096740;29;20418;-64
2023/01/20 07:48:10;;;;;;;20.23;16.90;;;-3.30;99.90;;;;;;4079425;29;20451;-64
2023/01/20 07:50:11;;;;;;;17.53;9.80;;;-3.30;99.90;;;;;;4095832;29;20473;-64
2023/01/20 07:52:12;;;;;;;7.73;5.63;;;-3.30;99.90;;;;;;4096450;29;20942;-64
2023/01/20 07:54:12;;;;;;;10.13;6.73;;;-3.20;99.90;;;;;;4087681;29;20199;-63
2023/01/20 07:56:22;;;;;;;10.53;6.47;;;-3.00;99.90;;;;;;4080568;29;20195;-64
2023/01/20 07:58:23;;;;;;;9.30;5.23;;;-3.00;99.90;;;;;;4063372;29;20219;-63
2023/01/20 08:00:24;;;;;;;18.10;10.03;;;-2.80;99.90;;;;;;4079650;29;20441;-63
2023/01/20 08:02:24;;;;;;;22.90;12.77;;;-2.60;99.90;;;;;;4080614;28;20183;-63
2023/01/20 08:04:25;;;;;;;27.50;15.70;;;-2.70;99.90;;;;;;4080078;29;20569;-63
2023/01/20 08:06:26;;;;;;;14.43;7.07;;;-3.00;99.90;;;;;;4080323;29;20187;-63
2023/01/20 08:08:27;;;;;;;9.07;6.07;;;-2.90;99.90;;;;;;4080034;29;20676;-63
2023/01/20 08:10:28;;;;;;;8.30;5.03;;;-2.70;99.90;;;;;;4079411;28;20450;-63
2023/01/20 08:12:29;;;;;;;7.20;4.47;;;-2.60;99.90;;;;;;4080148;29;20199;-63
2023/01/20 08:14:30;;;;;;;6.10;4.40;;;-2.70;99.90;;;;;;4080087;29;20191;-62
2023/01/20 08:16:30;;;;;;;8.77;5.20;;;-2.60;99.90;;;;;;4063135;29;20526;-63
2023/01/20 08:18:32;;;;;;;7.60;4.67;;;-2.50;99.90;;;;;;4079933;28;20211;-64
2023/01/20 08:20:33;;;;;;;6.53;4.37;;;-2.60;99.90;;;;;;4062881;28;20995;-62
2023/01/20 08:22:34;;;;;;;6.60;4.03;;;-2.50;99.90;;;;;;4080381;29;20428;-64
2023/01/20 08:24:34;;;;;;;9.13;4.57;;;-2.40;99.90;;;;;;4063055;28;20330;-63
2023/01/20 08:26:35;;;;;;;6.80;4.43;;;-2.40;99.90;;;;;;4080091;29;20219;-63
2023/01/20 08:28:36;;;;;;;5.30;3.67;;;-2.20;99.90;;;;;;4085030;28;20208;-63
2023/01/20 08:30:37;;;;;;;6.07;4.00;;;-2.20;99.90;;;;;;4095034;29;20187;-62
2023/01/20 08:32:37;;;;;;;6.47;3.73;;;-2.10;99.90;;;;;;4095830;29;20262;-63
2023/01/20 08:34:38;;;;;;;6.07;3.60;;;-2.00;99.90;;;;;;4078886;29;20212;-63
2023/01/20 08:36:40;;;;;;;4.00;2.70;;;-2.00;99.90;;;;;;4078800;28;20212;-63
2023/01/20 08:38:42;;;;;;;9.07;4.47;;;-1.70;99.80;;;;;;4095894;29;20628;-63
2023/01/20 08:40:43;;;;;;;5.43;3.60;;;-1.40;99.90;;;;;;4095261;29;20428;-64
2023/01/20 08:42:43;;;;;;;5.67;3.83;;;-1.30;97.90;;;;;;4095763;28;20447;-64
2023/01/20 08:44:46;;;;;;;5.43;3.77;;;-1.30;97.50;;;;;;4091867;28;20261;-63
2023/01/20 08:46:51;;;;;;;6.63;3.90;;;-1.20;97.50;;;;;;4090738;28;20183;-64
2023/01/20 08:48:52;;;;;;;5.33;3.57;;;-1.00;97.90;;;;;;4094362;28;20418;-63
2023/01/20 08:50:52;;;;;;;7.37;3.80;;;-0.90;97.80;;;;;;4095213;28;20442;-63
2023/01/20 08:52:53;;;;;;;4.47;3.00;;;-0.70;97.30;;;;;;4107794;28;20659;-61
2023/01/20 08:54:54;;;;;;;7.50;3.33;;;-0.60;96.50;;;;;;4135495;28;20549;-63
2023/01/20 08:56:54;;;;;;;4.63;3.00;;;-0.40;95.90;;;;;;4107671;28;20254;-63
2023/01/20 08:58:57;;;;;;;4.97;3.10;;;-0.30;95.90;;;;;;4105567;28;20194;-62
2023/01/20 09:00:58;;;;;;;5.33;3.43;;;-0.30;95.40;;;;;;4105534;28;20191;-63
2023/01/20 09:02:58;;;;;;;5.37;2.90;;;-0.20;96.30;;;;;;4104596;28;20445;-63
2023/01/20 09:04:59;;;;;;;7.77;3.73;;;0.00;95.60;;;;;;4122691;28;20459;-63
2023/01/20 09:07:00;;;;;;;4.63;3.07;;;0.20;96.20;;;;;;4164464;28;20208;-64
2023/01/20 09:09:00;;;;;;;3.13;2.07;;;0.40;94.90;;;;;;4138795;28;20188;-64
2023/01/20 09:11:05;;;;;;;2.60;2.03;;;0.40;94.30;;;;;;4113688;28;20190;-63
2023/01/20 09:13:05;;;;;;;3.03;1.93;;;0.50;95.00;;;;;;4111157;28;20187;-63
2023/01/20 09:15:07;;;;;;;3.37;2.20;;;0.50;93.90;;;;;;4108136;28;20522;-63
2023/01/20 09:17:09;;;;;;;2.67;1.80;;;0.60;93.60;;;;;;4107619;28;20219;-63
2023/01/20 09:19:09;;;;;;;2.60;1.83;;;0.50;93.20;;;;;;4110126;28;20449;-62
2023/01/20 09:21:10;;;;;;;2.40;1.90;;;0.60;92.30;;;;;;4135814;28;21335;-62
2023/01/20 09:23:11;;;;;;;2.33;1.60;;;0.60;92.90;;;;;;4110338;28;20197;-63
2023/01/20 09:25:12;;;;;;;3.40;1.80;;;0.50;92.90;;;;;;4107070;28;20510;-63
2023/01/20 09:27:13;;;;;;;2.43;1.60;;;0.70;92.90;;;;;;4110767;28;20215;-64
2023/01/20 09:29:18;;;;;;;1.70;1.30;;;0.80;91.70;;;;;;4106393;28;20562;-64
2023/01/20 09:31:19;;;;;;;3.87;1.70;;;0.80;91.50;;;;;;4094588;29;20194;-64
2023/01/20 09:33:19;;;;;;;4.30;1.80;;;0.80;91.10;;;;;;4105383;28;20525;-63
2023/01/20 09:35:20;;;;;;;2.77;1.80;;;0.80;91.40;;;;;;4093825;29;20212;-62
2023/01/20 09:45:21;;;;;;;3.67;2.00;;;0.70;91.70;;;;;;4101724;28;21202;-62
2023/01/20 09:47:30;;;;;;;2.63;1.50;;;0.90;90.90;;;;;;4089400;28;20483;-62
2023/01/20 09:55:20;;;;;;;3.47;1.60;;;1.20;87.50;;;;;;4118903;28;20503;-62
2023/01/20 09:57:26;;;;;;;2.53;1.50;;;1.30;88.00;;;;;;4110623;28;20476;-63
2023/01/20 09:59:35;;;;;;;1.57;1.37;;;1.40;88.00;;;;;;4086519;29;20829;-64
2023/01/20 10:01:48;;;;;;;3.37;1.70;;;1.40;86.30;;;;;;4095653;29;20430;-62
2023/01/20 10:03:57;;;;;;;2.77;1.83;;;1.00;86.20;;;;;;4166729;28;20825;-63
2023/01/20 10:06:00;;;;;;;3.10;1.50;;;0.80;89.10;;;;;;4181973;28;20419;-62
2023/01/20 10:08:10;;;;;;;2.93;1.60;;;0.90;89.20;;;;;;4067236;28;20451;-63
2023/01/20 10:10:37;;;;;;;2.60;1.70;;;0.80;88.40;;;;;;4095966;29;20428;-63
2023/01/20 10:12:47;;;;;;;2.77;1.70;;;1.00;89.10;;;;;;4087566;29;20427;-64
2023/01/20 10:15:25;;;;;;;2.57;1.40;;;1.10;89.10;;;;;;4108778;28;20437;-64
2023/01/20 10:17:39;;;;;;;3.23;1.50;;;1.00;87.40;;;;;;4089450;28;20454;-65
2023/01/20 10:20:13;;;;;;;2.63;1.70;;;1.10;86.00;;;;;;4098747;28;20429;-64
2023/01/20 10:22:24;;;;;;;1.53;1.30;;;1.40;85.70;;;;;;4067833;29;20416;-63
2023/01/20 10:24:34;;;;;;;2.10;1.73;;;2.50;80.70;;;;;;4110364;28;20532;-63
2023/01/20 10:27:02;;;;;;;2.57;1.90;;;3.50;74.60;;;;;;4079979;29;20425;-62
2023/01/20 10:29:08;;;;;;;2.20;1.40;;;4.00;70.30;;;;;;4104446;28;20610;-63
2023/01/20 10:31:12;;;;;;;1.90;1.50;;;4.00;68.20;;;;;;4088279;29;20450;-63
2023/01/20 10:33:20;;;;;;;4.53;1.50;;;3.70;68.70;;;;;;4136362;28;20546;-63
2023/01/20 10:35:30;;;;;;;2.30;1.40;;;3.70;68.10;;;;;;4130009;28;20434;-62
2023/01/20 10:37:31;;;;;;;1.80;1.13;;;3.40;67.80;;;;;;4099135;28;20476;-62
2023/01/20 10:40:19;;;;;;;1.40;1.23;;;3.20;67.70;;;;;;4107062;28;20795;-63
2023/01/20 10:42:20;;;;;;;1.50;1.20;;;3.50;67.10;;;;;;4088750;28;20210;-63
2023/01/20 10:44:22;;;;;;;1.40;1.30;;;3.40;65.80;;;;;;4098248;28;20464;-62
2023/01/20 10:46:53;;;;;;;1.30;1.10;;;3.20;68.00;;;;;;4081260;28;20493;-64
2023/01/20 10:49:31;;;;;;;2.60;1.27;;;3.60;67.00;;;;;;4169192;28;20423;-63
2023/01/20 10:51:51;;;;;;;3.73;1.10;;;4.10;66.80;;;;;;4096375;29;20438;-63
2023/01/20 10:54:40;;;;;;;1.63;1.20;;;4.00;65.00;;;;;;4111834;28;20422;-63
2023/01/20 10:56:52;;;;;;;3.87;1.00;;;4.00;64.00;;;;;;4101206;28;20439;-63
2023/01/20 10:58:52;;;;;;;1.67;1.00;;;4.00;60.70;;;;;;4121880;28;20940;-63
2023/01/20 11:00:56;;;;;;;2.93;1.10;;;4.00;61.10;;;;;;4086008;29;20439;-63